createdAt,value
2022-12-31T00:05:00.688Z,99724.69
2022-12-31T00:10:04.661Z,99705.43
2022-12-31T00:15:07.906Z,99693.13
2022-12-31T00:20:11.655Z,99685.84
2022-12-31T00:25:14.452Z,99677.56
2022-12-31T00:30:17.340Z,99687.02
2022-12-31T00:35:20.160Z,99688.23
2022-12-31T00:40:23.063Z,99670.36
2022-12-31T00:45:25.967Z,99663.56
2022-12-31T00:50:28.768Z,99642.80
2022-12-31T00:55:31.587Z,99622.70
2022-12-31T01:00:34.372Z,99623.91
2022-12-31T01:05:38.415Z,99613.08
2022-12-31T01:11:00.655Z,99631.75
2022-12-31T01:16:12.159Z,99630.39
2022-12-31T01:21:15.885Z,99622.98
2022-12-31T01:26:19.681Z,99614.96
2022-12-31T01:31:24.317Z,99608.60
2022-12-31T01:36:29.859Z,99611.61
2022-12-31T01:41:35.604Z,99603.64
2022-12-31T01:46:52.319Z,99585.89
2022-12-31T01:52:00.467Z,99584.16
2022-12-31T01:57:05.357Z,99581.61
2022-12-31T02:02:08.451Z,99576.38
2022-12-31T02:07:12.191Z,99574.77
2022-12-31T02:12:15.852Z,99576.02
2022-12-31T02:17:37.499Z,99596.20
2022-12-31T02:23:13.593Z,99589.13
2022-12-31T02:28:29.184Z,99579.64
2022-12-31T02:33:52.556Z,99575.97
2022-12-31T02:38:57.610Z,99573.83
2022-12-31T02:44:00.726Z,99577.02
2022-12-31T02:49:45.324Z,99572.20
2022-12-31T02:55:11.507Z,99581.49
2022-12-31T03:00:35.803Z,99584.75
2022-12-31T03:05:43.447Z,99563.08
2022-12-31T03:10:46.183Z,99555.41
2022-12-31T03:15:49.586Z,99562.90
2022-12-31T03:21:11.343Z,99548.50
2022-12-31T03:26:14.076Z,99545.09
2022-12-31T03:31:16.981Z,99542.35
2022-12-31T03:36:19.855Z,99546.02
2022-12-31T03:41:22.663Z,99549.10
2022-12-31T03:46:25.459Z,99544.09
2022-12-31T03:51:28.296Z,99537.45
2022-12-31T03:56:31.044Z,99538.08
2022-12-31T04:01:33.988Z,99541.76
2022-12-31T04:06:36.876Z,99539.27
2022-12-31T04:11:39.678Z,99531.87
2022-12-31T04:16:42.625Z,99545.42
2022-12-31T04:21:45.475Z,99546.67
2022-12-31T04:26:48.377Z,99530.87
2022-12-31T04:31:51.318Z,99527.52
2022-12-31T04:36:54.196Z,99558.89
2022-12-31T04:41:56.948Z,99541.52
2022-12-31T04:46:59.722Z,99536.35
2022-12-31T04:52:03.361Z,99544.31
2022-12-31T04:57:06.645Z,99538.84
2022-12-31T05:02:10.056Z,99530.45
2022-12-31T05:07:13.048Z,99517.22
2022-12-31T05:12:15.847Z,99522.65
2022-12-31T05:17:20.900Z,99519.25
2022-12-31T05:22:29.648Z,99531.93
2022-12-31T05:27:32.528Z,99539.91
2022-12-31T05:32:35.687Z,99541.73
2022-12-31T05:37:39.314Z,99548.92
2022-12-31T05:42:42.064Z,99534.33
2022-12-31T05:47:45.343Z,99542.19
2022-12-31T05:52:48.299Z,99541.02
2022-12-31T05:57:51.098Z,99540.27
2022-12-31T06:02:53.964Z,99539.21
2022-12-31T06:07:56.907Z,99540.39
2022-12-31T06:12:59.903Z,99550.23
2022-12-31T06:18:02.664Z,99557.09
2022-12-31T06:23:06.144Z,99546.04
2022-12-31T06:28:12.183Z,99543.90
2022-12-31T06:33:20.781Z,99544.27
2022-12-31T06:38:26.107Z,99540.60
2022-12-31T06:43:28.832Z,99544.70
2022-12-31T06:48:32.102Z,99555.22
2022-12-31T06:53:34.908Z,99568.95
2022-12-31T06:58:38.377Z,99568.07
2022-12-31T07:03:58.754Z,99576.23
2022-12-31T07:09:06.061Z,99582.88
2022-12-31T07:14:30.885Z,99591.59
2022-12-31T07:19:46.080Z,99588.77
2022-12-31T07:24:49.475Z,99592.14
2022-12-31T07:30:15.143Z,99596.30
2022-12-31T07:35:35.449Z,99600.09
2022-12-31T07:41:23.297Z,99601.80
2022-12-31T07:46:39.538Z,99604.52
2022-12-31T07:51:42.875Z,99620.08
2022-12-31T07:56:46.133Z,99619.79
2022-12-31T08:02:14.592Z,99619.85
2022-12-31T08:07:47.355Z,99621.90
2022-12-31T08:12:50.705Z,99626.79
2022-12-31T08:17:54.424Z,99632.73
2022-12-31T08:23:25.926Z,99629.06
2022-12-31T08:29:17.468Z,99622.00
2022-12-31T08:34:49.505Z,99631.98
2022-12-31T08:40:11.231Z,99643.30
2022-12-31T08:45:25.129Z,99656.91
2022-12-31T08:50:29.219Z,99653.63
2022-12-31T08:55:32.582Z,99656.53
2022-12-31T09:00:36.572Z,99658.84
2022-12-31T09:05:55.193Z,99653.00
2022-12-31T09:11:22.948Z,99637.43
2022-12-31T09:16:51.513Z,99645.05
2022-12-31T09:21:55.456Z,99645.72
2022-12-31T09:27:28.041Z,99635.04
2022-12-31T09:33:07.764Z,99638.20
2022-12-31T09:38:30.937Z,99636.05
2022-12-31T09:43:45.263Z,99626.92
2022-12-31T09:49:06.425Z,99610.63
2022-12-31T09:54:39.706Z,99607.15
2022-12-31T10:00:20.489Z,99612.47
2022-12-31T10:06:01.117Z,99598.13
2022-12-31T10:11:06.400Z,99592.42
2022-12-31T10:16:18.653Z,99573.86
2022-12-31T10:21:30.825Z,99572.19
2022-12-31T10:26:41.865Z,99554.67
2022-12-31T10:32:14.313Z,99540.90
2022-12-31T10:37:38.518Z,99533.27
2022-12-31T10:43:08.172Z,99535.23
2022-12-31T10:48:41.687Z,99517.48
2022-12-31T10:54:06.222Z,99513.24
2022-12-31T10:59:09.301Z,99516.47
2022-12-31T11:04:45.607Z,99511.41
2022-12-31T11:10:13.539Z,99508.14
2022-12-31T11:15:22.488Z,99494.54
2022-12-31T11:21:03.437Z,99484.61
2022-12-31T11:26:12.972Z,99477.92
2022-12-31T11:31:15.752Z,99453.47
2022-12-31T11:36:38.644Z,99438.02
2022-12-31T11:42:27.099Z,99441.59
2022-12-31T11:47:56.544Z,99430.91
2022-12-31T11:53:24.039Z,99426.67
2022-12-31T11:58:29.005Z,99427.71
2022-12-31T12:03:32.176Z,99433.75
2022-12-31T12:08:36.038Z,99411.99
2022-12-31T12:13:38.914Z,99398.96
2022-12-31T12:18:44.671Z,99401.55
2022-12-31T12:24:05.309Z,99407.81
2022-12-31T12:29:22.351Z,99396.14
2022-12-31T12:34:28.529Z,99394.84
2022-12-31T12:39:33.803Z,99387.88
2022-12-31T12:44:36.704Z,99374.41
2022-12-31T12:49:42.157Z,99377.63
2022-12-31T12:55:06.953Z,99373.45
2022-12-31T13:00:18.408Z,99363.70
2022-12-31T13:05:43.199Z,99354.46
2022-12-31T13:10:58.702Z,99349.91
2022-12-31T13:16:18.462Z,99352.56
2022-12-31T13:21:49.166Z,99350.85
2022-12-31T13:26:58.697Z,99339.58
2022-12-31T13:32:03.390Z,99346.19
2022-12-31T13:37:22.473Z,99342.63
2022-12-31T13:42:32.902Z,99367.69
2022-12-31T13:47:43.088Z,99376.34
2022-12-31T13:52:54.693Z,99372.54
2022-12-31T13:58:19.617Z,99372.30
2022-12-31T14:03:44.339Z,99378.15
2022-12-31T14:08:47.141Z,99384.05
2022-12-31T14:14:13.843Z,99385.05
2022-12-31T14:19:16.661Z,99392.41
2022-12-31T14:24:43.189Z,99383.45
2022-12-31T14:29:51.081Z,99386.27
2022-12-31T14:35:25.319Z,99391.58
2022-12-31T14:40:43.886Z,99399.51
2022-12-31T14:46:09.850Z,99387.99
2022-12-31T14:51:13.591Z,99370.63
2022-12-31T14:56:45.868Z,99375.39
2022-12-31T15:01:48.816Z,99382.66
2022-12-31T15:07:02.120Z,99380.42
2022-12-31T15:12:19.247Z,99390.51
2022-12-31T15:17:28.691Z,99391.73
2022-12-31T15:22:40.374Z,99371.15
2022-12-31T15:27:47.085Z,99376.96
2022-12-31T15:32:50.009Z,99381.91
2022-12-31T15:38:01.849Z,99384.44
2022-12-31T15:43:21.387Z,99386.79
2022-12-31T15:48:26.829Z,99406.35
2022-12-31T15:53:34.648Z,99402.23
2022-12-31T15:58:38.248Z,99403.90
2022-12-31T16:03:48.108Z,99408.32
2022-12-31T16:08:51.306Z,99407.10
2022-12-31T16:13:56.566Z,99403.89
2022-12-31T16:19:00.343Z,99412.41
2022-12-31T16:24:06.459Z,99425.56
2022-12-31T16:29:15.103Z,99409.70
2022-12-31T16:34:22.222Z,99403.29
2022-12-31T16:39:26.768Z,99402.40
2022-12-31T16:44:30.660Z,99414.63
2022-12-31T16:49:37.983Z,99406.00
2022-12-31T16:54:46.984Z,99407.92
2022-12-31T16:59:54.830Z,99421.30
2022-12-31T17:04:57.751Z,99442.34
2022-12-31T17:10:15.617Z,99448.84
2022-12-31T17:15:26.603Z,99443.79
2022-12-31T17:20:32.814Z,99443.48
2022-12-31T17:25:38.666Z,99461.73
2022-12-31T17:30:41.663Z,99454.59
2022-12-31T17:35:45.655Z,99447.23
2022-12-31T17:41:05.424Z,99454.39
2022-12-31T17:46:16.905Z,99457.61
2022-12-31T17:51:24.154Z,99455.58
2022-12-31T17:56:27.555Z,99468.88
2022-12-31T18:01:31.251Z,99478.60
2022-12-31T18:06:34.112Z,99472.27
2022-12-31T18:11:38.330Z,99476.41
2022-12-31T18:16:41.840Z,99490.11
2022-12-31T18:21:45.136Z,99490.55
2022-12-31T18:26:47.848Z,99500.23
2022-12-31T18:31:50.900Z,99513.83
2022-12-31T18:36:53.763Z,99492.96
2022-12-31T18:41:56.626Z,99464.78
2022-12-31T18:46:59.429Z,99455.23
2022-12-31T18:52:02.153Z,99468.19
2022-12-31T18:57:04.877Z,99469.02
2022-12-31T19:02:15.856Z,99477.77
2022-12-31T19:07:18.740Z,99480.52
2022-12-31T19:12:21.628Z,99480.91
2022-12-31T19:17:24.531Z,99483.84
2022-12-31T19:22:27.284Z,99487.33
2022-12-31T19:27:30.001Z,99494.68
2022-12-31T19:32:32.697Z,99495.38
2022-12-31T19:37:35.632Z,99497.70
2022-12-31T19:42:38.436Z,99497.20
2022-12-31T19:47:41.236Z,99498.96
2022-12-31T19:52:45.616Z,99492.25
2022-12-31T19:57:49.007Z,99499.48
2022-12-31T20:02:51.956Z,99495.87
2022-12-31T20:07:55.003Z,99483.14
2022-12-31T20:12:58.516Z,99491.17
2022-12-31T20:18:01.400Z,99494.67
2022-12-31T20:23:04.199Z,99488.00
2022-12-31T20:28:07.007Z,99498.39
2022-12-31T20:33:12.136Z,99487.05
2022-12-31T20:38:19.288Z,99485.81
2022-12-31T20:43:22.060Z,99483.71
2022-12-31T20:48:24.817Z,99481.70
2022-12-31T20:53:28.037Z,99472.55
2022-12-31T20:58:31.006Z,99477.27
2022-12-31T21:09:01.309Z,99455.15
2022-12-31T21:14:04.910Z,99455.20
2022-12-31T21:19:07.589Z,99453.79
2022-12-31T21:24:10.853Z,99452.47
2022-12-31T21:29:13.590Z,99453.06
2022-12-31T21:34:16.840Z,99461.81
2022-12-31T21:39:19.635Z,99468.77
2022-12-31T21:44:24.625Z,99473.81
2022-12-31T21:49:27.321Z,99470.34
2022-12-31T21:54:48.546Z,99452.63
2022-12-31T22:00:40.332Z,99446.88
2022-12-31T22:05:32.625Z,99449.29
2022-12-31T22:10:37.409Z,99456.28
2022-12-31T22:15:45.980Z,99460.50
2022-12-31T22:20:49.027Z,99478.25
2022-12-31T22:25:51.826Z,99476.11
2022-12-31T22:30:54.683Z,99483.80
2022-12-31T22:36:03.290Z,99484.32
2022-12-31T22:41:10.905Z,99481.52
2022-12-31T22:46:16.530Z,99473.90
2022-12-31T22:51:20.285Z,99473.73
2022-12-31T22:56:23.009Z,99454.71
2022-12-31T23:01:25.780Z,99457.58
2022-12-31T23:06:29.293Z,99463.95
2022-12-31T23:11:34.456Z,99467.17
2022-12-31T23:16:56.169Z,99473.85
2022-12-31T23:22:17.629Z,99476.33
2022-12-31T23:27:20.314Z,99478.29
2022-12-31T23:32:23.146Z,99468.10
2022-12-31T23:37:25.901Z,99466.22
2022-12-31T23:42:28.675Z,99471.73
2022-12-31T23:47:31.625Z,99460.86
2022-12-31T23:52:34.333Z,99452.36
2022-12-31T23:57:37.564Z,99478.46
